チューリッヒ の空港の天気 - METARとTAF

チューリヒ国際空港 ( LSZH / ZRH ) - スイス チューリッヒ
飛行場実況気象(Metar)
観測時間04/25 16:20 CEST (04/25 14:20 UTC)
風向・風速西北西 7m/s
視程10km以上
天気現象
少しの雲 雲底高度 1220m
全天の4割程度の雲 雲底高度 8530m
気温22℃
湿度50%
気圧1014hPa
METARLSZH 251420Z 30014KT 9999 FEW040 SCT280 22/11 Q1014 NOSIG
過去の天気等 Google飛行場航空写真 Wunderground天気予報

過去48時間のMETAR

飛行場予報(TAF)
発表時間: 4/25 16:25 CEST (4/25 14:25 UTC)
予報対象時間: 25日17時 CEST ~ 26日23時 CEST
風向・風速西北西 6m/s
視程10km以上
少しの雲 雲底高度 1,220m
25日17時 CEST ~ 25日20時 CEST に一時的に
風向・風速西北西 8m/s 瞬間風速 14m/s
25日19時 CEST ~ 25日21時 CEST に徐々に
風向・風速西南西 3m/s
26日2時 CEST ~ 26日8時 CEST に 確率 40% で一時的に
天気現象しゅう雨
全天の8割程度の雲 雲底高度 910m
26日12時 CEST ~ 26日20時 CEST に一時的に
風向・風速西北西 5m/s 瞬間風速 10m/s
TAF LSZH 251425Z 2515/2621 29012KT 9999 FEW040 TX22/2515Z TN10/2604Z TX17/2614Z
TEMPO 2515/2518 30015G28KT
BECMG 2517/2519 25005KT
PROB40 TEMPO 2600/2606 SHRA BKN030
TEMPO 2610/2618 30010G20KT